Time;durP1;ratioP1;P1;durP2;ratioP2;P2;SDS_P1;SDS_P2;PMS_P1;PMS_P2;Temp;Humidity;BMP_temperature;BMP_pressure;BME280_temperature;BME280_humidity;BME280_pressure;Samples;Min_cycle;Max_cycle;Signal;HPM_P1;HPM_P2
2022/01/30 00:00:26;;;;;;;4.97;3.53;;;2.20;99.90;;;;;;5040109;28;20963;-54
2022/01/30 00:02:53;;;;;;;3.13;2.83;;;2.20;99.90;;;;;;5046490;28;20496;-52
2022/01/30 00:05:20;;;;;;;5.33;3.13;;;2.10;99.90;;;;;;5043276;28;20539;-52
2022/01/30 00:07:47;;;;;;;4.50;2.97;;;2.10;99.90;;;;;;5042768;28;20452;-52
2022/01/30 00:10:14;;;;;;;3.10;2.67;;;2.20;99.90;;;;;;5044272;28;20548;-52
2022/01/30 00:12:47;;;;;;;3.27;2.93;;;2.30;99.90;;;;;;5043190;28;20449;-54
2022/01/30 00:15:15;;;;;;;3.63;3.30;;;2.30;99.90;;;;;;5050958;28;20438;-54
2022/01/30 00:17:49;;;;;;;5.50;3.23;;;2.30;99.90;;;;;;5043758;28;20511;-51
2022/01/30 00:20:20;;;;;;;2.60;2.40;;;2.30;99.90;;;;;;5039628;28;20514;-52
2022/01/30 00:22:53;;;;;;;7.20;4.00;;;2.30;99.90;;;;;;5045926;28;20492;-53
2022/01/30 00:25:31;;;;;;;4.67;3.20;;;1.70;99.90;;;;;;5055965;28;20986;-49
2022/01/30 00:28:05;;;;;;;4.90;3.00;;;1.80;99.90;;;;;;5042899;28;20453;-54
2022/01/30 00:30:34;;;;;;;3.20;2.60;;;1.90;99.90;;;;;;5048270;28;20453;-52
2022/01/30 00:33:03;;;;;;;2.63;2.43;;;2.00;99.90;;;;;;5041479;28;20453;-50
2022/01/30 00:35:33;;;;;;;3.63;2.57;;;1.80;99.90;;;;;;5046958;28;20481;-51
2022/01/30 00:38:00;;;;;;;2.83;2.63;;;1.90;99.90;;;;;;5044987;28;20800;-50
2022/01/30 00:40:27;;;;;;;4.33;2.80;;;2.00;99.90;;;;;;5047421;28;20517;-52
2022/01/30 00:42:54;;;;;;;2.83;2.40;;;2.00;99.90;;;;;;5050032;28;20898;-48
2022/01/30 00:45:21;;;;;;;3.87;2.50;;;1.60;99.90;;;;;;5046972;28;20523;-52
2022/01/30 00:47:48;;;;;;;2.93;2.70;;;1.80;99.90;;;;;;5044060;28;20510;-53
2022/01/30 00:50:17;;;;;;;3.27;3.07;;;1.90;99.90;;;;;;5045217;28;20926;-49
2022/01/30 00:52:49;;;;;;;3.90;3.13;;;2.00;99.90;;;;;;5038477;28;20446;-52
2022/01/30 00:55:16;;;;;;;2.40;2.20;;;1.80;99.90;;;;;;5046006;28;20464;-51
2022/01/30 00:57:43;;;;;;;3.00;2.33;;;1.10;99.90;;;;;;5047810;28;20532;-51
2022/01/30 01:00:11;;;;;;;2.70;2.37;;;1.10;99.90;;;;;;5045038;28;20922;-51
2022/01/30 01:02:38;;;;;;;3.90;2.93;;;1.30;99.90;;;;;;5049667;28;20736;-50
2022/01/30 01:05:06;;;;;;;4.80;3.60;;;1.40;99.90;;;;;;5048811;28;20502;-52
2022/01/30 01:07:36;;;;;;;5.90;3.63;;;1.20;99.90;;;;;;5047593;28;20467;-52
2022/01/30 01:10:09;;;;;;;4.80;3.00;;;1.10;99.90;;;;;;5045028;28;20510;-54
2022/01/30 01:23:39;;;;;;;3.17;2.87;;;1.20;99.90;;;;;;5009034;28;20758;-53
2022/01/30 01:26:06;;;;;;;3.30;2.67;;;1.00;99.90;;;;;;5042222;28;20449;-53
2022/01/30 01:28:33;;;;;;;3.10;2.80;;;1.10;99.90;;;;;;5040690;28;21077;-53
2022/01/30 01:31:00;;;;;;;4.50;3.33;;;1.30;99.90;;;;;;5047967;28;20523;-48
2022/01/30 01:33:36;;;;;;;4.90;4.07;;;1.20;99.90;;;;;;5046209;28;21010;-50
2022/01/30 01:36:03;;;;;;;2.73;2.53;;;1.20;99.90;;;;;;5056120;28;20796;-53
2022/01/30 01:38:30;;;;;;;3.30;3.00;;;1.00;99.90;;;;;;5047225;28;20592;-51
2022/01/30 01:40:58;;;;;;;3.63;3.33;;;1.00;99.90;;;;;;5053382;28;20514;-52
2022/01/30 01:43:27;;;;;;;4.23;3.37;;;1.10;99.90;;;;;;5044227;28;20484;-52
2022/01/30 01:45:57;;;;;;;4.17;2.30;;;1.00;99.90;;;;;;5055912;28;20467;-52
2022/01/30 01:48:24;;;;;;;3.40;3.20;;;1.20;99.90;;;;;;5043008;28;20481;-50
2022/01/30 01:50:54;;;;;;;4.83;3.47;;;1.20;99.90;;;;;;5042893;28;20489;-52
2022/01/30 01:53:24;;;;;;;3.20;2.43;;;1.20;99.90;;;;;;5048552;28;20446;-54
2022/01/30 01:55:52;;;;;;;7.90;5.57;;;0.90;99.90;;;;;;5056705;28;21033;-52
2022/01/30 01:58:23;;;;;;;6.00;3.60;;;1.00;99.90;;;;;;5038665;28;21014;-52
2022/01/30 02:00:50;;;;;;;5.50;3.70;;;1.10;99.90;;;;;;5055544;28;20560;-51
2022/01/30 02:03:19;;;;;;;3.67;3.00;;;0.80;99.90;;;;;;5048662;28;20477;-51
2022/01/30 02:05:52;;;;;;;3.00;2.80;;;0.90;99.90;;;;;;5049992;28;20444;-49
2022/01/30 02:08:31;;;;;;;2.73;2.30;;;0.80;99.90;;;;;;5050483;28;20563;-51
2022/01/30 02:11:03;;;;;;;2.80;2.60;;;0.50;99.90;;;;;;5047045;28;20443;-51
2022/01/30 02:14:11;;;;;;;2.90;2.70;;;0.70;99.90;;;;;;5055082;28;20491;-51
2022/01/30 02:25:03;;;;;;;2.70;2.50;;;0.80;99.90;;;;;;5057575;28;20457;-53
2022/01/30 02:27:34;;;;;;;4.47;3.40;;;0.70;99.90;;;;;;5057616;28;20872;-51
2022/01/30 02:30:06;;;;;;;2.67;2.47;;;0.40;99.90;;;;;;5058085;28;20466;-51
2022/01/30 02:32:33;;;;;;;5.40;3.90;;;0.40;99.90;;;;;;5045052;28;20937;-51
2022/01/30 02:35:00;;;;;;;5.13;4.47;;;0.60;99.90;;;;;;5043556;28;20459;-52
2022/01/30 02:37:28;;;;;;;4.07;3.20;;;0.50;99.90;;;;;;5061729;28;20504;-50
2022/01/30 02:39:55;;;;;;;2.47;2.27;;;0.70;99.90;;;;;;5054984;28;21070;-54
2022/01/30 02:42:26;;;;;;;2.57;2.37;;;0.80;99.90;;;;;;5047537;28;20501;-53
2022/01/30 02:44:56;;;;;;;4.97;3.00;;;0.90;99.90;;;;;;5045485;28;20504;-52
2022/01/30 02:47:37;;;;;;;4.20;3.20;;;1.00;99.90;;;;;;5055504;28;20476;-54
2022/01/30 02:50:17;;;;;;;3.60;3.30;;;1.10;99.90;;;;;;5047339;28;20996;-51
2022/01/30 02:52:55;;;;;;;3.10;2.80;;;1.10;99.90;;;;;;5050319;28;20502;-52
2022/01/30 02:55:23;;;;;;;2.93;2.70;;;0.20;99.90;;;;;;5051576;28;20495;-50
2022/01/30 02:57:50;;;;;;;4.00;2.20;;;0.50;99.90;;;;;;5053691;28;20684;-54
2022/01/30 03:00:17;;;;;;;4.13;2.57;;;0.20;99.90;;;;;;5059275;28;20467;-51
2022/01/30 03:02:44;;;;;;;3.00;2.70;;;0.30;99.90;;;;;;5050329;28;20523;-50
2022/01/30 03:05:11;;;;;;;2.67;2.20;;;0.40;99.90;;;;;;5052692;28;20550;-53
2022/01/30 03:07:38;;;;;;;2.60;2.40;;;0.50;99.90;;;;;;5063299;28;20992;-50
2022/01/30 03:10:07;;;;;;;4.63;3.03;;;0.70;99.90;;;;;;5043260;28;20499;-52
2022/01/30 03:12:34;;;;;;;2.67;2.43;;;0.70;99.90;;;;;;5046866;28;20484;-49
2022/01/30 03:15:02;;;;;;;2.73;2.13;;;0.10;99.90;;;;;;5050248;28;20491;-53
2022/01/30 03:17:29;;;;;;;1.60;1.50;;;0.20;99.90;;;;;;5059091;28;20546;-52
2022/01/30 03:19:56;;;;;;;3.50;3.20;;;0.20;99.90;;;;;;5048655;28;20486;-49
2022/01/30 03:22:23;;;;;;;3.23;2.43;;;0.40;99.90;;;;;;5048105;28;20508;-53
2022/01/30 03:24:50;;;;;;;3.57;3.27;;;0.30;99.90;;;;;;5061594;28;20447;-53
2022/01/30 03:27:18;;;;;;;2.90;2.70;;;0.20;99.90;;;;;;5052601;28;20661;-53
2022/01/30 03:29:50;;;;;;;3.93;2.80;;;0.20;99.90;;;;;;5050065;28;21854;-52
2022/01/30 03:32:18;;;;;;;2.67;2.37;;;0.50;99.90;;;;;;5050145;28;20514;-48
2022/01/30 03:34:45;;;;;;;4.43;2.47;;;0.60;99.90;;;;;;5047426;28;20469;-51
2022/01/30 03:37:12;;;;;;;3.40;2.97;;;0.40;99.90;;;;;;5062701;28;20939;-52
2022/01/30 03:39:39;;;;;;;2.33;2.13;;;0.40;99.90;;;;;;5050629;28;20519;-51
2022/01/30 03:42:07;;;;;;;14.37;9.10;;;0.60;99.90;;;;;;5046979;28;20507;-54
2022/01/30 03:44:35;;;;;;;4.67;3.10;;;0.70;99.90;;;;;;5043299;28;20859;-54
2022/01/30 03:47:02;;;;;;;3.20;2.90;;;0.40;99.90;;;;;;5050442;28;20949;-53
2022/01/30 03:49:29;;;;;;;5.13;3.30;;;0.10;99.90;;;;;;5048279;28;20507;-48
2022/01/30 03:51:56;;;;;;;3.83;2.90;;;0.30;99.90;;;;;;5051164;28;20491;-52
2022/01/30 03:54:23;;;;;;;2.73;2.50;;;0.40;99.90;;;;;;5055307;28;20911;-53
2022/01/30 03:56:50;;;;;;;4.90;3.20;;;0.10;99.90;;;;;;5049648;28;20548;-51
2022/01/30 03:59:17;;;;;;;4.23;3.20;;;0.10;99.90;;;;;;5045796;28;20497;-54
2022/01/30 04:01:45;;;;;;;2.50;2.30;;;0.30;99.90;;;;;;5060123;28;20508;-51
2022/01/30 04:04:12;;;;;;;2.60;2.40;;;0.50;99.90;;;;;;5061033;28;20482;-50
2022/01/30 04:06:40;;;;;;;2.83;2.40;;;0.40;99.90;;;;;;5047366;28;20485;-51
2022/01/30 04:09:07;;;;;;;4.17;3.77;;;0.60;99.90;;;;;;5042020;28;20514;-52
2022/01/30 04:11:34;;;;;;;2.73;2.53;;;0.70;99.90;;;;;;5052330;28;20477;-52
2022/01/30 04:14:01;;;;;;;3.17;2.40;;;0.60;99.90;;;;;;5061581;28;20468;-52
2022/01/30 04:16:29;;;;;;;4.57;2.90;;;0.50;99.90;;;;;;5045419;28;20449;-51
2022/01/30 04:18:57;;;;;;;3.80;2.77;;;0.50;99.90;;;;;;5040809;28;20500;-53
2022/01/30 04:21:25;;;;;;;4.70;3.00;;;0.30;99.90;;;;;;5062426;28;20498;-50
2022/01/30 04:23:52;;;;;;;3.60;2.87;;;0.40;99.90;;;;;;5043952;28;20472;-52
2022/01/30 04:26:19;;;;;;;3.87;3.47;;;0.50;99.90;;;;;;5050363;28;20453;-52
2022/01/30 04:28:46;;;;;;;3.70;3.40;;;0.30;99.90;;;;;;5055319;28;20513;-49
2022/01/30 04:31:14;;;;;;;3.93;2.60;;;0.40;99.90;;;;;;5045361;28;20471;-51
2022/01/30 04:33:41;;;;;;;5.97;3.27;;;0.50;99.90;;;;;;5040805;28;20447;-53
2022/01/30 04:36:15;;;;;;;3.47;2.80;;;0.60;99.90;;;;;;5041363;28;20445;-51
2022/01/30 04:38:55;;;;;;;2.70;2.50;;;0.40;99.90;;;;;;5062009;23;20477;31
2022/01/30 04:41:54;;;;;;;16.13;10.83;;;0.50;99.90;;;;;;4995560;28;20452;-58
2022/01/30 04:53:03;;;;;;;3.63;2.27;;;0.40;99.90;;;;;;5005538;28;20955;-58
2022/01/30 04:58:20;;;;;;;3.60;2.47;;;0.30;99.90;;;;;;5018166;28;20508;-56
2022/01/30 05:00:58;;;;;;;1.70;1.60;;;0.30;99.90;;;;;;5007336;28;20479;-58
2022/01/30 05:03:35;;;;;;;2.90;2.20;;;0.10;99.90;;;;;;5006457;28;20480;-58
2022/01/30 05:06:05;;;;;;;2.97;2.60;;;0.30;99.90;;;;;;5006944;28;20453;-57
2022/01/30 05:08:34;;;;;;;2.13;1.93;;;0.40;99.90;;;;;;5008186;28;20458;-58
2022/01/30 05:11:05;;;;;;;2.83;2.23;;;0.50;99.90;;;;;;5004861;28;20965;-58
2022/01/30 05:13:35;;;;;;;2.40;2.20;;;0.60;99.90;;;;;;5005979;28;20858;-58
2022/01/30 05:16:03;;;;;;;2.70;2.23;;;0.70;99.90;;;;;;5020728;28;20449;-57
2022/01/30 05:18:31;;;;;;;2.33;2.00;;;0.60;99.90;;;;;;5016143;28;21241;-58
2022/01/30 05:20:58;;;;;;;2.23;1.70;;;0.60;99.90;;;;;;5007315;28;20481;-57
2022/01/30 05:23:25;;;;;;;2.27;1.60;;;0.50;99.90;;;;;;5010125;28;21098;-56
2022/01/30 05:25:55;;;;;;;2.90;1.73;;;0.60;99.90;;;;;;5016308;28;20487;-57
2022/01/30 05:28:23;;;;;;;2.03;1.83;;;0.70;99.90;;;;;;5024108;28;20532;-57
2022/01/30 05:30:51;;;;;;;2.63;1.50;;;0.60;99.90;;;;;;5010949;28;20477;-58
2022/01/30 05:33:18;;;;;;;2.10;2.00;;;0.50;99.90;;;;;;5008902;28;20452;-57
2022/01/30 05:35:46;;;;;;;3.80;2.27;;;0.80;99.90;;;;;;5016872;28;20495;-58
2022/01/30 05:38:13;;;;;;;3.27;2.97;;;0.90;99.90;;;;;;5015275;28;20444;-58
2022/01/30 05:40:41;;;;;;;3.30;2.90;;;0.80;99.90;;;;;;5009535;28;20502;-57
2022/01/30 05:43:10;;;;;;;5.17;3.07;;;-0.10;99.90;;;;;;5001625;28;21061;-57
2022/01/30 05:45:40;;;;;;;2.77;2.30;;;-0.30;99.90;;;;;;5028963;28;20997;-57
2022/01/30 05:48:14;;;;;;;4.60;2.90;;;-0.10;99.90;;;;;;5017051;28;20527;-57
2022/01/30 05:50:42;;;;;;;3.17;2.93;;;0.10;99.90;;;;;;5013425;28;20559;-57
2022/01/30 05:53:08;;;;;;;2.90;2.67;;;0.10;99.90;;;;;;5006001;28;20485;-57
2022/01/30 05:55:35;;;;;;;2.47;2.30;;;0.20;99.90;;;;;;5024117;28;20478;-57
2022/01/30 05:58:03;;;;;;;2.07;1.77;;;0.30;99.90;;;;;;5015940;28;21019;-57
2022/01/30 06:00:31;;;;;;;7.00;4.73;;;0.60;99.90;;;;;;5017742;28;20589;-57
2022/01/30 06:02:58;;;;;;;4.67;4.23;;;0.60;99.90;;;;;;5011918;28;20510;-57
2022/01/30 06:05:25;;;;;;;2.77;2.37;;;0.60;99.90;;;;;;5020273;28;20469;-57
2022/01/30 06:07:54;;;;;;;5.63;3.67;;;0.50;99.90;;;;;;5014091;28;21012;-57
2022/01/30 06:10:23;;;;;;;3.50;3.20;;;0.60;99.90;;;;;;5015371;28;20482;-56
2022/01/30 06:12:50;;;;;;;2.20;2.10;;;0.30;99.90;;;;;;5011729;28;20478;-58
2022/01/30 06:15:18;;;;;;;2.47;2.10;;;0.50;99.90;;;;;;5006524;28;20474;-57
2022/01/30 06:17:47;;;;;;;2.10;2.00;;;0.70;99.90;;;;;;5012060;28;20938;-58
2022/01/30 06:20:14;;;;;;;3.97;3.57;;;0.80;99.90;;;;;;5010481;28;20500;-57
2022/01/30 06:22:41;;;;;;;3.13;2.83;;;0.80;99.90;;;;;;5022133;28;20512;-57
2022/01/30 06:25:09;;;;;;;1.30;1.20;;;0.60;99.90;;;;;;5006948;28;20470;-57
2022/01/30 06:27:37;;;;;;;3.90;2.10;;;0.60;99.90;;;;;;5012105;28;20489;-58
2022/01/30 06:30:05;;;;;;;4.20;3.87;;;0.80;99.90;;;;;;5022937;28;20556;-57
2022/01/30 06:32:32;;;;;;;5.10;3.27;;;0.90;99.90;;;;;;5010082;28;20532;-57
2022/01/30 06:35:01;;;;;;;5.03;2.60;;;0.80;99.90;;;;;;5015105;28;20453;-58
2022/01/30 06:37:28;;;;;;;1.60;1.50;;;0.70;99.90;;;;;;5010807;28;20513;-58
2022/01/30 06:39:55;;;;;;;2.60;2.07;;;0.70;99.90;;;;;;5020020;28;20474;-57
2022/01/30 06:42:22;;;;;;;4.20;3.00;;;0.80;99.90;;;;;;5012407;28;20568;-58
2022/01/30 06:44:50;;;;;;;3.40;3.10;;;0.90;99.90;;;;;;5015280;28;20460;-58
2022/01/30 06:47:17;;;;;;;3.23;2.80;;;0.90;99.90;;;;;;5013437;28;20974;-57
2022/01/30 06:49:44;;;;;;;2.27;2.07;;;1.00;99.90;;;;;;5017797;28;20501;-58
2022/01/30 06:52:12;;;;;;;3.70;3.40;;;1.00;99.90;;;;;;5013673;28;20467;-58
2022/01/30 06:54:39;;;;;;;4.67;4.10;;;1.10;99.90;;;;;;5011749;28;20501;-58
2022/01/30 06:57:07;;;;;;;6.03;5.53;;;0.70;99.90;;;;;;5015649;28;20891;-58
2022/01/30 06:59:35;;;;;;;4.60;4.20;;;0.50;99.90;;;;;;5021951;28;20463;-58
2022/01/30 07:02:02;;;;;;;4.37;2.70;;;0.90;99.90;;;;;;5006935;28;20585;-58
2022/01/30 07:04:29;;;;;;;2.20;2.10;;;1.40;99.90;;;;;;5009716;28;20984;-57
2022/01/30 07:06:57;;;;;;;6.47;5.20;;;1.60;99.90;;;;;;5020597;28;20462;-58
2022/01/30 07:09:25;;;;;;;5.93;4.30;;;1.60;99.90;;;;;;5017194;28;20769;-58
2022/01/30 07:11:52;;;;;;;7.33;6.57;;;1.10;99.90;;;;;;5014039;28;20480;-58
2022/01/30 07:14:19;;;;;;;3.13;2.40;;;1.00;99.90;;;;;;5018891;28;20479;-58
2022/01/30 07:16:46;;;;;;;9.80;6.87;;;1.10;99.90;;;;;;5002342;28;20559;-58
2022/01/30 07:19:13;;;;;;;5.40;4.30;;;1.20;99.90;;;;;;5005608;28;20505;-57
2022/01/30 07:21:40;;;;;;;12.80;11.50;;;1.30;99.90;;;;;;4990615;28;20467;-57
2022/01/30 07:24:08;;;;;;;10.00;9.00;;;0.90;99.90;;;;;;4990117;28;20578;-58
2022/01/30 07:26:36;;;;;;;4.43;3.93;;;1.10;99.90;;;;;;5007848;28;20450;-58
2022/01/30 07:29:03;;;;;;;5.10;4.60;;;1.10;99.90;;;;;;4999403;28;20498;-58
2022/01/30 07:31:31;;;;;;;4.80;4.03;;;1.20;99.90;;;;;;5006578;28;20462;-58
2022/01/30 07:33:58;;;;;;;3.10;2.80;;;1.10;99.90;;;;;;5016633;28;20968;-58
2022/01/30 07:36:25;;;;;;;6.00;5.40;;;1.40;99.90;;;;;;4992907;28;20477;-58
2022/01/30 07:38:53;;;;;;;20.37;16.97;;;1.50;99.90;;;;;;4991793;28;20471;-57
2022/01/30 07:41:20;;;;;;;13.47;11.50;;;1.30;99.90;;;;;;4992698;28;20474;-57
2022/01/30 07:43:49;;;;;;;4.77;4.33;;;1.30;99.90;;;;;;4993758;28;20515;-57
2022/01/30 07:46:16;;;;;;;21.27;15.47;;;1.30;99.90;;;;;;5010605;28;20447;-58
2022/01/30 07:48:43;;;;;;;6.90;5.47;;;1.40;99.90;;;;;;5009958;28;20491;-58
2022/01/30 07:51:10;;;;;;;6.43;4.70;;;1.50;99.90;;;;;;5015578;28;20966;-58
2022/01/30 07:53:37;;;;;;;4.87;4.47;;;1.50;99.90;;;;;;5013300;28;20471;-58
2022/01/30 07:56:04;;;;;;;9.43;7.00;;;1.60;99.90;;;;;;4993240;28;20554;-57
2022/01/30 07:58:31;;;;;;;7.83;7.03;;;1.60;99.90;;;;;;4991999;28;20961;-58
2022/01/30 08:00:59;;;;;;;6.87;6.27;;;1.20;99.90;;;;;;4993181;28;20501;-57
2022/01/30 08:03:26;;;;;;;6.10;5.70;;;1.20;99.90;;;;;;5009969;28;20598;-57
2022/01/30 08:05:53;;;;;;;4.73;4.30;;;1.30;99.90;;;;;;5007643;28;20485;-57
2022/01/30 08:08:20;;;;;;;5.97;5.47;;;1.40;99.90;;;;;;5010973;28;20832;-57
2022/01/30 08:10:47;;;;;;;8.27;6.53;;;1.50;99.90;;;;;;5011149;28;20494;-57
2022/01/30 08:13:15;;;;;;;8.27;7.40;;;1.40;99.90;;;;;;5011756;28;20490;-57
2022/01/30 08:15:43;;;;;;;3.57;3.27;;;1.50;99.90;;;;;;5009659;28;20451;-57
2022/01/30 08:18:11;;;;;;;3.47;2.93;;;1.40;99.90;;;;;;5009910;28;20962;-57
2022/01/30 08:20:38;;;;;;;1.80;1.70;;;1.50;99.90;;;;;;5017333;28;20520;-57
2022/01/30 08:23:11;;;;;;;2.40;2.20;;;1.60;99.90;;;;;;5006340;28;20511;-57
2022/01/30 08:25:39;;;;;;;7.27;6.57;;;1.60;99.90;;;;;;4999424;28;20455;-56
2022/01/30 08:28:06;;;;;;;4.33;3.60;;;1.50;99.90;;;;;;5010664;28;20475;-58
2022/01/30 08:30:33;;;;;;;4.27;3.87;;;1.60;99.90;;;;;;5008279;28;20522;-57
2022/01/30 08:33:02;;;;;;;4.43;4.03;;;1.60;99.90;;;;;;5009418;28;20474;-57
2022/01/30 08:35:31;;;;;;;3.97;3.57;;;1.50;99.90;;;;;;5008355;28;20525;-57
2022/01/30 08:37:59;;;;;;;3.00;2.80;;;1.50;99.90;;;;;;5009872;28;20533;-58
2022/01/30 08:40:27;;;;;;;3.40;3.10;;;1.60;99.90;;;;;;5009886;28;20975;-58
2022/01/30 08:42:54;;;;;;;6.70;5.77;;;1.70;99.90;;;;;;5009512;28;20574;-58
2022/01/30 08:45:22;;;;;;;4.07;3.67;;;1.60;99.90;;;;;;5010186;28;20950;-57
2022/01/30 08:47:51;;;;;;;1.93;1.73;;;1.70;99.90;;;;;;5010972;28;20471;-58
2022/01/30 08:50:19;;;;;;;6.53;5.70;;;1.60;99.90;;;;;;5010218;28;20498;-58
2022/01/30 08:52:48;;;;;;;8.73;7.20;;;1.70;99.90;;;;;;5023376;28;20470;-58
2022/01/30 08:55:15;;;;;;;7.50;6.67;;;1.60;99.90;;;;;;5010693;28;20521;-57
2022/01/30 08:57:42;;;;;;;6.93;6.23;;;1.30;99.90;;;;;;5009312;28;20501;-57
2022/01/30 09:00:13;;;;;;;4.17;3.87;;;1.40;99.90;;;;;;5010113;28;20502;-58
2022/01/30 09:02:40;;;;;;;3.27;2.97;;;1.30;99.90;;;;;;5000723;28;20558;-58
2022/01/30 09:05:09;;;;;;;7.23;6.60;;;1.50;99.90;;;;;;5010918;28;20475;-58
2022/01/30 09:07:36;;;;;;;6.40;5.80;;;1.60;99.90;;;;;;5010305;28;20498;-58
2022/01/30 09:10:07;;;;;;;6.90;4.33;;;1.70;99.90;;;;;;5002461;28;20463;-57
2022/01/30 09:12:34;;;;;;;2.63;2.43;;;1.30;99.90;;;;;;5004213;28;20562;-57
2022/01/30 09:15:01;;;;;;;2.73;2.50;;;1.80;99.90;;;;;;5001646;28;20474;-58
2022/01/30 09:17:28;;;;;;;5.03;4.63;;;2.20;99.90;;;;;;5004400;28;20447;-58
2022/01/30 09:19:55;;;;;;;4.57;4.13;;;2.00;99.90;;;;;;5006969;28;20475;-58
2022/01/30 09:22:22;;;;;;;3.30;3.10;;;1.80;99.90;;;;;;5004400;28;20506;-58
2022/01/30 09:24:50;;;;;;;6.90;6.20;;;1.90;99.90;;;;;;4998400;28;20534;-58
2022/01/30 09:27:18;;;;;;;4.47;4.03;;;1.90;99.90;;;;;;5001416;28;20463;-57
2022/01/30 09:29:45;;;;;;;3.43;3.10;;;1.40;99.90;;;;;;5000691;28;20499;-57
2022/01/30 09:32:12;;;;;;;3.10;2.80;;;1.80;99.90;;;;;;4999579;28;20481;-58
2022/01/30 09:34:40;;;;;;;1.53;1.23;;;1.90;99.90;;;;;;5000476;28;20497;-58
2022/01/30 09:37:08;;;;;;;0.80;0.80;;;2.70;99.90;;;;;;5002019;28;20512;-57
2022/01/30 09:39:36;;;;;;;5.87;5.37;;;2.90;99.90;;;;;;5000612;28;20772;-58
2022/01/30 09:42:03;;;;;;;5.57;4.20;;;2.60;99.90;;;;;;5003677;28;20529;-58
2022/01/30 09:44:39;;;;;;;3.03;2.80;;;2.30;99.90;;;;;;5004172;28;20511;-58
2022/01/30 09:47:07;;;;;;;5.57;5.07;;;2.40;99.90;;;;;;5005843;28;20497;-58
2022/01/30 09:49:34;;;;;;;5.67;5.17;;;2.40;99.90;;;;;;5005263;28;20556;-58
2022/01/30 09:52:01;;;;;;;3.87;3.53;;;2.40;99.90;;;;;;5004428;28;21027;-58
2022/01/30 09:54:28;;;;;;;3.57;3.30;;;2.40;99.90;;;;;;5008392;28;20526;-58
2022/01/30 09:56:55;;;;;;;1.90;1.70;;;2.50;99.90;;;;;;5003320;28;20474;-58
2022/01/30 09:59:22;;;;;;;2.00;1.10;;;2.60;99.90;;;;;;5005578;28;20491;-57
2022/01/30 10:01:50;;;;;;;1.10;0.77;;;3.00;99.90;;;;;;5001705;28;20484;-58
2022/01/30 10:04:17;;;;;;;4.57;3.87;;;3.30;99.90;;;;;;5003613;28;20507;-58
2022/01/30 10:06:52;;;;;;;4.50;4.10;;;3.30;99.90;;;;;;5003572;28;20531;-58
2022/01/30 10:09:25;;;;;;;4.37;3.30;;;3.30;99.90;;;;;;5003400;28;20473;-58
2022/01/30 10:12:01;;;;;;;3.00;2.73;;;3.10;99.90;;;;;;5005397;28;20439;-58
2022/01/30 10:14:29;;;;;;;2.90;2.40;;;3.30;99.90;;;;;;5001692;28;20495;-58
2022/01/30 10:16:57;;;;;;;24.10;21.60;;;3.40;99.90;;;;;;5003179;28;20483;-57
2022/01/30 10:19:25;;;;;;;5.37;4.87;;;3.50;99.90;;;;;;5009343;28;20512;-58
2022/01/30 10:22:04;;;;;;;2.07;1.87;;;3.70;99.90;;;;;;5009488;28;20450;-58
2022/01/30 10:24:36;;;;;;;4.57;3.63;;;3.80;99.90;;;;;;5009102;28;21036;-58
2022/01/30 10:27:19;;;;;;;4.30;3.83;;;3.90;99.90;;;;;;5005793;28;20476;-57
2022/01/30 10:29:46;;;;;;;2.83;2.60;;;3.90;99.90;;;;;;5007229;28;20503;-58
2022/01/30 10:32:17;;;;;;;3.00;2.80;;;4.00;99.90;;;;;;5008968;28;20477;-57
2022/01/30 10:34:56;;;;;;;3.07;2.87;;;4.00;99.90;;;;;;5004554;28;20499;-58
2022/01/30 10:37:24;;;;;;;3.50;3.00;;;4.10;99.90;;;;;;5006835;28;20791;-58
2022/01/30 10:40:12;;;;;;;4.20;3.63;;;4.10;99.90;;;;;;5013208;28;20486;-60
2022/01/30 10:42:41;;;;;;;4.87;3.43;;;4.10;99.90;;;;;;5011157;28;20909;-58
2022/01/30 10:45:11;;;;;;;4.67;3.40;;;4.10;99.90;;;;;;5011685;28;20489;-60
2022/01/30 10:47:41;;;;;;;4.07;3.77;;;4.20;99.90;;;;;;5011531;28;20500;-60
2022/01/30 10:50:14;;;;;;;5.53;3.87;;;4.30;99.90;;;;;;5011333;28;20470;-58
2022/01/30 10:52:53;;;;;;;6.13;4.70;;;4.30;99.90;;;;;;5021978;28;20481;-59
2022/01/30 10:55:43;;;;;;;5.17;4.47;;;4.40;99.90;;;;;;5006018;28;20476;-58
2022/01/30 10:58:14;;;;;;;4.73;3.80;;;4.40;99.90;;;;;;5006836;28;20451;-57
2022/01/30 11:00:43;;;;;;;4.20;3.50;;;4.50;99.90;;;;;;5005607;28;20505;-60
2022/01/30 11:03:35;;;;;;;6.30;4.80;;;4.50;99.90;;;;;;5008782;28;20449;-58
2022/01/30 11:06:03;;;;;;;3.63;3.30;;;4.40;99.90;;;;;;5006446;28;21185;-59
2022/01/30 11:08:32;;;;;;;4.93;3.53;;;4.70;99.90;;;;;;5004699;28;20450;-58
2022/01/30 11:11:07;;;;;;;2.90;2.70;;;5.00;99.90;;;;;;5006351;28;20471;-60
2022/01/30 11:13:47;;;;;;;2.87;1.97;;;4.90;99.90;;;;;;5006186;28;20446;-60
2022/01/30 11:19:02;;;;;;;3.17;2.27;;;5.00;99.90;;;;;;5005964;28;20454;-59
2022/01/30 11:21:30;;;;;;;3.77;2.83;;;5.10;99.90;;;;;;5012783;28;20447;-59
2022/01/30 11:24:01;;;;;;;3.27;2.30;;;5.20;99.90;;;;;;5004670;28;20505;-58
2022/01/30 11:26:29;;;;;;;2.23;2.03;;;5.20;99.90;;;;;;5003206;28;20479;-58
2022/01/30 11:28:57;;;;;;;2.03;1.83;;;5.30;99.90;;;;;;5005549;28;20696;-61
2022/01/30 11:31:25;;;;;;;3.47;2.30;;;5.40;99.90;;;;;;5005051;28;20483;-58
2022/01/30 11:33:54;;;;;;;4.03;3.70;;;5.60;99.90;;;;;;5009205;28;20432;-59
2022/01/30 11:36:24;;;;;;;3.17;2.80;;;5.60;99.90;;;;;;5001715;28;20454;-59
2022/01/30 11:38:51;;;;;;;3.83;3.50;;;5.60;99.90;;;;;;5001773;28;20474;-58
2022/01/30 11:41:19;;;;;;;3.53;3.23;;;5.60;99.90;;;;;;5007713;28;20486;-60
2022/01/30 11:44:32;;;;;;;3.73;2.80;;;5.60;99.90;;;;;;5006852;28;20489;-57
2022/01/30 11:47:19;;;;;;;4.17;3.30;;;5.60;99.90;;;;;;4966703;28;20480;-59
2022/01/30 11:49:49;;;;;;;1.97;1.40;;;5.70;99.90;;;;;;4996796;28;20535;-57
2022/01/30 11:52:19;;;;;;;1.47;1.30;;;6.20;99.90;;;;;;5005771;28;20440;-58
2022/01/30 11:54:47;;;;;;;3.13;2.80;;;6.20;99.90;;;;;;5003998;28;20468;-59
2022/01/30 11:57:45;;;;;;;1.93;1.80;;;6.20;99.90;;;;;;5005427;28;20494;-59
2022/01/30 12:00:37;;;;;;;1.47;0.60;;;6.20;99.90;;;;;;4997014;28;20458;-58
2022/01/30 12:03:25;;;;;;;0.93;0.83;;;6.90;99.90;;;;;;5003352;28;20438;-61
2022/01/30 12:05:53;;;;;;;1.93;1.20;;;7.20;99.90;;;;;;5002329;28;20925;-61
2022/01/30 12:08:48;;;;;;;1.30;1.20;;;7.80;99.90;;;;;;5002946;28;20950;-58
2022/01/30 12:12:07;;;;;;;1.03;0.93;;;7.50;99.90;;;;;;5003186;28;20444;-59
2022/01/30 12:15:01;;;;;;;0.80;0.63;;;7.30;99.90;;;;;;5002839;28;20429;-58
2022/01/30 12:17:49;;;;;;;0.60;0.60;;;7.60;99.90;;;;;;5001985;28;20904;-59
2022/01/30 12:20:17;;;;;;;1.00;0.90;;;8.20;99.90;;;;;;5008817;28;20459;-58
2022/01/30 12:22:44;;;;;;;1.20;1.03;;;8.10;99.90;;;;;;5007783;28;20461;-59
2022/01/30 12:25:53;;;;;;;2.80;1.30;;;7.90;99.90;;;;;;5000781;28;20499;-57
2022/01/30 12:28:20;;;;;;;0.90;0.80;;;7.70;99.90;;;;;;4948142;29;20466;-59
2022/01/30 12:30:52;;;;;;;0.83;0.70;;;7.90;99.90;;;;;;4949961;29;20493;-60
2022/01/30 12:33:46;;;;;;;1.10;0.67;;;7.80;99.90;;;;;;4973645;28;20516;-58
2022/01/30 12:36:21;;;;;;;0.60;0.40;;;7.80;99.90;;;;;;4993800;28;20956;-58
2022/01/30 12:39:04;;;;;;;0.90;0.60;;;7.70;99.90;;;;;;5002286;28;20793;-60
2022/01/30 12:41:34;;;;;;;0.60;0.43;;;8.00;99.90;;;;;;5006486;28;20443;-59
2022/01/30 12:44:04;;;;;;;1.40;0.60;;;8.10;99.90;;;;;;5011809;28;20810;-58
2022/01/30 12:46:33;;;;;;;0.60;0.50;;;8.40;99.40;;;;;;4999804;28;20487;-60
2022/01/30 12:49:06;;;;;;;0.70;0.40;;;8.50;98.80;;;;;;5009434;28;21062;-59
2022/01/30 12:51:34;;;;;;;0.70;0.40;;;8.40;98.60;;;;;;5011020;28;20478;-59
2022/01/30 12:54:02;;;;;;;0.60;0.37;;;8.30;99.00;;;;;;5005886;28;20443;-60
2022/01/30 12:56:30;;;;;;;0.90;0.50;;;8.50;97.20;;;;;;5009724;28;20455;-59
2022/01/30 12:59:06;;;;;;;0.60;0.50;;;9.00;95.60;;;;;;5010205;28;20471;-57
2022/01/30 13:01:34;;;;;;;0.60;0.40;;;9.10;95.20;;;;;;5009274;28;20455;-59
2022/01/30 13:04:06;;;;;;;0.60;0.47;;;8.90;94.30;;;;;;5009578;28;20451;-58
2022/01/30 13:06:35;;;;;;;1.10;0.40;;;9.00;93.50;;;;;;5003771;28;20509;-59
2022/01/30 13:09:03;;;;;;;0.50;0.40;;;8.90;94.10;;;;;;5003734;28;20876;-62
2022/01/30 13:11:30;;;;;;;1.43;0.60;;;8.90;93.70;;;;;;5009455;28;20940;-60
2022/01/30 13:14:01;;;;;;;0.60;0.37;;;8.90;94.30;;;;;;5009890;28;20573;-61
2022/01/30 13:16:31;;;;;;;0.50;0.30;;;8.90;93.70;;;;;;5003221;28;20652;-58
2022/01/30 13:18:59;;;;;;;0.73;0.30;;;8.90;92.60;;;;;;5008919;28;20496;-56
2022/01/30 13:21:28;;;;;;;0.73;0.50;;;9.00;92.90;;;;;;5010431;28;20947;-58
2022/01/30 13:23:56;;;;;;;0.77;0.50;;;8.80;93.50;;;;;;5015040;28;20474;-58
2022/01/30 13:26:41;;;;;;;0.50;0.40;;;8.70;93.40;;;;;;5009189;28;20486;-56
2022/01/30 13:29:13;;;;;;;0.83;0.50;;;8.60;93.50;;;;;;5009089;28;20495;-57
2022/01/30 13:31:41;;;;;;;1.03;0.60;;;8.70;93.30;;;;;;5009383;28;20505;-56
2022/01/30 13:34:23;;;;;;;0.50;0.30;;;8.80;92.70;;;;;;5009333;28;20457;-59
2022/01/30 13:36:55;;;;;;;0.63;0.40;;;8.80;93.30;;;;;;5009356;28;20862;-56
2022/01/30 13:39:29;;;;;;;0.63;0.50;;;8.70;93.70;;;;;;5008605;28;21045;-54
2022/01/30 13:42:05;;;;;;;0.60;0.30;;;8.80;93.50;;;;;;5003111;28;20469;-56
2022/01/30 13:44:52;;;;;;;0.80;0.40;;;8.80;92.50;;;;;;5009686;28;20494;-57